Time;durP1;ratioP1;P1;durP2;ratioP2;P2;SDS_P1;SDS_P2;PMS_P1;PMS_P2;Temp;Humidity;BMP_temperature;BMP_pressure;BME280_temperature;BME280_humidity;BME280_pressure;Samples;Min_cycle;Max_cycle;Signal;HPM_P1;HPM_P2
2021/12/14 00:01:09;;;;;;;4.80;3.33;;;7.50;99.90;;;;;;4995243;28;20216;-40
2021/12/14 00:03:39;;;;;;;4.23;3.43;;;7.50;99.90;;;;;;4995016;28;20547;-42
2021/12/14 00:06:04;;;;;;;5.03;3.83;;;7.50;99.90;;;;;;4995008;28;20655;-42
2021/12/14 00:08:47;;;;;;;5.50;4.20;;;7.50;99.90;;;;;;4995110;28;20289;-41
2021/12/14 00:11:30;;;;;;;5.00;4.10;;;7.50;99.90;;;;;;4965478;28;20177;-42
2021/12/14 00:14:13;;;;;;;4.67;3.93;;;7.50;99.90;;;;;;4994948;28;20224;-42
2021/12/14 00:16:42;;;;;;;5.50;4.00;;;7.50;99.90;;;;;;4994866;28;20169;-43
2021/12/14 00:19:08;;;;;;;5.03;3.90;;;7.50;99.90;;;;;;4994598;28;20197;-41
2021/12/14 00:21:34;;;;;;;4.63;4.13;;;7.50;99.90;;;;;;4977343;28;20209;-42
2021/12/14 00:24:06;;;;;;;4.43;3.47;;;7.40;99.90;;;;;;4995023;28;20544;-44
2021/12/14 00:26:36;;;;;;;4.17;3.73;;;7.40;99.90;;;;;;4995054;28;20166;-43
2021/12/14 00:29:03;;;;;;;4.90;3.73;;;7.50;99.90;;;;;;4994918;28;20525;-42
2021/12/14 00:31:29;;;;;;;6.20;3.70;;;7.40;99.90;;;;;;4994580;28;20727;-43
2021/12/14 00:33:59;;;;;;;4.73;3.83;;;7.40;99.90;;;;;;4994873;28;20281;-44
2021/12/14 00:36:27;;;;;;;4.67;3.97;;;7.40;99.90;;;;;;4994794;28;20630;-43
2021/12/14 00:38:56;;;;;;;4.37;3.60;;;7.40;99.90;;;;;;4994115;28;20193;-43
2021/12/14 00:41:29;;;;;;;5.53;4.40;;;7.40;99.90;;;;;;4976763;28;20304;-43
2021/12/14 00:43:55;;;;;;;5.37;4.10;;;7.40;99.90;;;;;;4994621;28;20201;-43
2021/12/14 00:46:21;;;;;;;5.57;4.33;;;7.40;99.90;;;;;;4994420;28;20185;-41
2021/12/14 00:48:49;;;;;;;7.10;5.00;;;7.40;99.90;;;;;;4994436;28;20633;-42
2021/12/14 00:51:17;;;;;;;8.37;5.10;;;7.40;99.90;;;;;;4993964;28;20216;-40
2021/12/14 00:53:42;;;;;;;6.43;4.87;;;7.40;99.90;;;;;;4994252;28;20205;-42
2021/12/14 00:56:10;;;;;;;8.13;5.63;;;7.40;99.90;;;;;;4994233;28;20235;-41
2021/12/14 00:58:36;;;;;;;9.53;6.20;;;7.50;99.90;;;;;;4994468;28;20198;-43
2021/12/14 01:01:07;;;;;;;9.50;6.13;;;7.50;99.90;;;;;;4994283;28;20193;-41
2021/12/14 01:03:35;;;;;;;9.87;6.23;;;7.50;99.90;;;;;;4994363;28;20214;-45
2021/12/14 01:06:06;;;;;;;10.73;6.83;;;7.50;99.90;;;;;;4994354;28;20197;-42
2021/12/14 01:08:37;;;;;;;10.27;6.70;;;7.50;99.90;;;;;;4977337;28;20245;-43
2021/12/14 01:11:13;;;;;;;11.50;7.00;;;7.50;99.90;;;;;;4994549;28;20194;-42
2021/12/14 01:13:44;;;;;;;11.30;6.70;;;7.50;99.90;;;;;;4994181;28;20217;-42
2021/12/14 01:16:17;;;;;;;8.73;6.03;;;7.50;99.90;;;;;;4994441;28;20540;-50
2021/12/14 01:19:01;;;;;;;8.53;6.23;;;7.50;99.90;;;;;;4993964;28;20170;-45
2021/12/14 01:24:06;;;;;;;13.37;6.50;;;7.50;99.90;;;;;;4994230;28;20202;-44
2021/12/14 01:26:35;;;;;;;9.90;6.90;;;7.50;99.90;;;;;;4994084;28;20170;-41
2021/12/14 01:29:02;;;;;;;12.70;7.30;;;7.50;99.90;;;;;;4993875;28;20182;-41
2021/12/14 01:31:35;;;;;;;11.70;7.33;;;7.50;99.90;;;;;;4993834;28;20197;-41
2021/12/14 01:34:07;;;;;;;10.13;6.70;;;7.50;99.90;;;;;;4993742;28;20257;-41
2021/12/14 01:39:21;;;;;;;11.90;7.77;;;7.50;99.90;;;;;;4994065;28;20280;-41
2021/12/14 01:42:24;;;;;;;15.33;8.37;;;7.50;99.90;;;;;;4993906;28;20206;-42
2021/12/14 01:45:08;;;;;;;12.63;7.63;;;7.50;99.90;;;;;;4980870;28;20229;-44
2021/12/14 01:47:46;;;;;;;14.47;8.10;;;7.50;99.90;;;;;;4993997;28;20242;-42
2021/12/14 01:50:19;;;;;;;14.97;8.63;;;7.50;99.90;;;;;;4996896;28;20241;-42
2021/12/14 01:52:45;;;;;;;14.37;8.57;;;7.50;99.90;;;;;;4997907;28;20240;-42
2021/12/14 01:55:22;;;;;;;14.23;9.10;;;7.50;99.90;;;;;;4997672;28;20186;-44
2021/12/14 01:57:48;;;;;;;15.93;8.90;;;7.50;99.90;;;;;;4998156;28;20173;-44
2021/12/14 02:00:38;;;;;;;14.43;8.40;;;7.50;99.90;;;;;;4997545;28;20265;-41
2021/12/14 02:03:07;;;;;;;12.80;7.90;;;7.50;99.90;;;;;;4997398;28;20682;-42
2021/12/14 02:05:36;;;;;;;14.47;8.73;;;7.50;99.90;;;;;;4980018;28;20183;-38
2021/12/14 02:08:13;;;;;;;16.57;9.40;;;7.50;99.90;;;;;;4997560;28;20179;-41
2021/12/14 02:10:39;;;;;;;16.37;9.70;;;7.50;99.90;;;;;;4997516;28;20194;-43
2021/12/14 02:13:06;;;;;;;15.80;9.40;;;7.50;99.90;;;;;;4997193;28;20249;-41
2021/12/14 02:15:37;;;;;;;13.77;7.97;;;7.50;99.90;;;;;;4997132;28;20672;-41
2021/12/14 02:18:08;;;;;;;13.23;8.40;;;7.50;99.90;;;;;;4997231;28;20197;-40
2021/12/14 02:20:37;;;;;;;16.93;8.47;;;7.50;99.90;;;;;;4997368;28;20184;-41
2021/12/14 02:23:06;;;;;;;14.37;9.00;;;7.40;99.90;;;;;;4996909;28;20202;-44
2021/12/14 02:25:32;;;;;;;15.27;9.10;;;7.40;99.90;;;;;;4997315;28;20177;-44
2021/12/14 02:28:03;;;;;;;15.33;8.93;;;7.40;99.90;;;;;;4997313;28;20174;-41
2021/12/14 02:30:30;;;;;;;17.77;9.50;;;7.40;99.90;;;;;;4997142;28;20163;-42
2021/12/14 02:32:57;;;;;;;15.90;9.33;;;7.40;99.90;;;;;;4996776;28;20206;-43
2021/12/14 02:35:26;;;;;;;15.83;8.43;;;7.40;99.90;;;;;;4996985;28;20261;-39
2021/12/14 02:37:59;;;;;;;15.87;9.30;;;7.40;99.90;;;;;;4996830;28;20186;-43
2021/12/14 02:40:53;;;;;;;14.93;8.80;;;7.40;99.90;;;;;;4996606;28;20189;-42
2021/12/14 02:43:20;;;;;;;13.50;8.63;;;7.40;99.90;;;;;;4996241;28;20300;-42
2021/12/14 02:45:46;;;;;;;15.97;8.90;;;7.40;99.90;;;;;;4996660;28;20175;-43
2021/12/14 02:48:12;;;;;;;13.67;8.87;;;7.40;99.90;;;;;;4996544;28;20254;-42
2021/12/14 02:50:39;;;;;;;14.93;8.97;;;7.40;99.90;;;;;;4996516;28;20257;-42
2021/12/14 02:53:05;;;;;;;16.40;9.53;;;7.30;99.90;;;;;;4996462;28;20253;-40
2021/12/14 02:55:32;;;;;;;14.43;8.83;;;7.40;99.90;;;;;;4996496;28;20185;-44
2021/12/14 02:58:05;;;;;;;16.50;9.47;;;7.30;99.90;;;;;;4996563;28;20190;-43
2021/12/14 03:00:48;;;;;;;16.00;9.97;;;7.30;99.90;;;;;;4995931;28;20530;-43
2021/12/14 03:03:15;;;;;;;16.50;9.33;;;7.40;99.90;;;;;;4996465;28;20221;-43
2021/12/14 03:05:43;;;;;;;18.43;10.70;;;7.40;99.90;;;;;;4996566;28;20193;-42
2021/12/14 03:08:17;;;;;;;19.13;10.80;;;7.40;99.90;;;;;;4996634;28;20321;-44
2021/12/14 03:10:59;;;;;;;18.67;11.17;;;7.40;99.90;;;;;;4996499;28;20177;-42
2021/12/14 03:13:31;;;;;;;19.73;10.50;;;7.40;99.90;;;;;;4996527;28;20173;-44
2021/12/14 03:15:59;;;;;;;17.53;11.67;;;7.40;99.90;;;;;;5011196;28;20632;-42
2021/12/14 03:18:31;;;;;;;19.27;11.57;;;7.40;99.90;;;;;;4996191;28;20265;-42
2021/12/14 03:21:02;;;;;;;19.33;11.33;;;7.30;99.90;;;;;;4996510;28;20260;-42
2021/12/14 03:23:39;;;;;;;19.13;11.70;;;7.40;99.90;;;;;;4996333;28;20558;-41
2021/12/14 03:26:08;;;;;;;22.90;11.90;;;7.40;99.90;;;;;;4996074;28;20168;-45
2021/12/14 03:28:36;;;;;;;19.37;11.33;;;7.30;99.90;;;;;;4996053;28;20528;-42
2021/12/14 03:31:10;;;;;;;21.13;11.87;;;7.30;99.90;;;;;;4995990;28;20177;-43
2021/12/14 03:33:43;;;;;;;21.03;11.57;;;7.40;99.90;;;;;;4996182;28;20208;-45
2021/12/14 03:36:17;;;;;;;22.37;12.00;;;7.30;99.90;;;;;;4996123;28;20256;-43
2021/12/14 03:38:59;;;;;;;25.00;11.60;;;7.30;99.90;;;;;;4995970;28;20570;-45
2021/12/14 03:41:32;;;;;;;20.60;10.80;;;7.30;99.90;;;;;;4995625;28;20201;-42
2021/12/14 03:44:11;;;;;;;18.73;10.47;;;7.30;99.90;;;;;;4995554;28;20198;-42
2021/12/14 03:46:54;;;;;;;19.03;10.90;;;7.30;99.90;;;;;;4995812;28;20183;-43
2021/12/14 03:49:24;;;;;;;20.50;10.93;;;7.30;99.90;;;;;;4995827;28;20235;-43
2021/12/14 03:51:51;;;;;;;20.90;10.27;;;7.30;99.90;;;;;;4995820;28;20210;-40
2021/12/14 03:54:18;;;;;;;19.37;11.30;;;7.30;99.90;;;;;;4995876;28;20178;-42
2021/12/14 03:56:45;;;;;;;17.33;9.47;;;7.30;99.90;;;;;;4995193;28;20188;-41
2021/12/14 03:59:11;;;;;;;20.90;9.90;;;7.30;99.90;;;;;;4995565;28;20181;-41
2021/12/14 04:01:40;;;;;;;19.63;9.67;;;7.30;99.90;;;;;;4995229;28;20702;-42
2021/12/14 04:04:16;;;;;;;19.43;9.40;;;7.30;99.90;;;;;;4995158;28;20626;-41
2021/12/14 04:06:45;;;;;;;19.63;10.53;;;7.30;99.90;;;;;;4995434;28;20246;-42
2021/12/14 04:09:14;;;;;;;19.00;10.30;;;7.30;99.90;;;;;;4995282;28;20233;-42
2021/12/14 04:11:40;;;;;;;19.50;9.93;;;7.30;99.90;;;;;;4994700;28;20691;-42
2021/12/14 04:14:07;;;;;;;22.67;10.93;;;7.30;99.90;;;;;;4994343;28;20201;-39
2021/12/14 04:16:35;;;;;;;22.10;11.80;;;7.30;99.90;;;;;;4995231;28;20535;-40
2021/12/14 04:19:15;;;;;;;24.17;11.47;;;7.30;99.90;;;;;;4994773;28;20182;-42
2021/12/14 04:21:45;;;;;;;19.07;10.63;;;7.30;99.90;;;;;;4977641;28;20607;-43
2021/12/14 04:24:13;;;;;;;19.53;11.17;;;7.30;99.90;;;;;;4994713;28;20208;-43
2021/12/14 04:26:45;;;;;;;20.80;10.90;;;7.20;99.90;;;;;;4995121;28;20170;-43
2021/12/14 04:29:12;;;;;;;21.93;11.97;;;7.30;99.90;;;;;;4995061;28;20217;-43
2021/12/14 04:31:40;;;;;;;20.97;10.63;;;7.30;99.90;;;;;;4994548;28;20224;-41
2021/12/14 04:34:06;;;;;;;20.93;10.50;;;7.30;99.90;;;;;;4994872;28;20212;-43
2021/12/14 04:36:33;;;;;;;19.23;10.80;;;7.20;99.90;;;;;;4994628;28;20598;-41
2021/12/14 04:39:42;;;;;;;20.27;10.73;;;7.20;99.90;;;;;;4994815;28;20223;-42
2021/12/14 04:53:43;;;;;;;16.63;9.33;;;7.20;99.90;;;;;;5070877;28;20217;-42
2021/12/14 04:56:13;;;;;;;16.67;10.10;;;7.20;99.90;;;;;;5070392;28;20240;-42
2021/12/14 04:58:54;;;;;;;19.07;10.53;;;7.20;99.90;;;;;;5070431;28;20179;-44
2021/12/14 05:01:20;;;;;;;18.63;10.53;;;7.20;99.90;;;;;;5070482;28;20290;-44
2021/12/14 05:04:00;;;;;;;17.23;9.90;;;7.10;99.90;;;;;;5070456;28;20290;-41
2021/12/14 05:06:33;;;;;;;15.10;9.77;;;7.10;99.90;;;;;;5070256;28;20197;-41
2021/12/14 05:09:27;;;;;;;15.70;9.70;;;7.10;99.90;;;;;;5070622;28;20178;-41
2021/12/14 05:12:08;;;;;;;15.37;9.23;;;7.10;99.90;;;;;;5070261;28;20230;-44
2021/12/14 05:14:35;;;;;;;13.73;8.57;;;7.10;99.90;;;;;;5070119;28;20715;-44
2021/12/14 05:17:05;;;;;;;17.60;9.77;;;7.10;99.90;;;;;;5069993;28;20267;-42
2021/12/14 05:19:35;;;;;;;16.77;8.37;;;7.10;99.90;;;;;;5069966;28;20203;-41
2021/12/14 05:22:21;;;;;;;17.10;9.43;;;7.10;99.90;;;;;;5070194;28;20215;-39
2021/12/14 05:24:55;;;;;;;15.00;8.40;;;7.10;99.90;;;;;;5070038;28;20668;-43
2021/12/14 05:27:29;;;;;;;17.73;9.53;;;7.10;99.90;;;;;;5069949;28;20178;-43
2021/12/14 05:30:14;;;;;;;14.50;9.03;;;7.10;99.90;;;;;;5070141;28;20554;-41
2021/12/14 05:32:40;;;;;;;16.63;9.70;;;7.10;99.90;;;;;;5069104;28;20204;-39
2021/12/14 05:35:09;;;;;;;15.20;9.60;;;7.10;99.90;;;;;;5069875;28;20243;-41
2021/12/14 05:37:42;;;;;;;14.23;9.03;;;7.10;99.90;;;;;;5069979;28;20187;-43
2021/12/14 05:40:18;;;;;;;17.47;8.80;;;7.00;99.90;;;;;;5069955;28;20163;-42
2021/12/14 05:45:28;;;;;;;15.00;8.73;;;7.10;99.90;;;;;;5069897;28;20192;-44
2021/12/14 05:47:57;;;;;;;11.60;7.87;;;7.00;99.90;;;;;;5069590;28;20232;-43
2021/12/14 05:50:29;;;;;;;12.93;8.07;;;7.00;99.90;;;;;;5069585;28;20229;-41
2021/12/14 05:52:54;;;;;;;12.07;7.40;;;7.00;99.90;;;;;;5069715;28;20199;-43
2021/12/14 05:55:25;;;;;;;12.07;7.97;;;7.00;99.90;;;;;;5061981;28;20318;-45
2021/12/14 05:57:54;;;;;;;14.10;8.53;;;7.10;99.90;;;;;;5056499;28;20303;-43
2021/12/14 06:00:21;;;;;;;12.63;8.13;;;7.00;99.90;;;;;;5056200;28;20184;-43
2021/12/14 06:02:47;;;;;;;15.27;9.50;;;7.00;99.90;;;;;;5038832;28;20217;-44
2021/12/14 06:05:17;;;;;;;13.23;9.00;;;7.00;99.90;;;;;;5056224;28;20187;-41
2021/12/14 06:07:43;;;;;;;15.17;9.47;;;7.00;99.90;;;;;;5056383;28;20308;-41
2021/12/14 06:10:12;;;;;;;13.90;9.30;;;7.00;99.90;;;;;;5055321;28;20210;-41
2021/12/14 06:12:39;;;;;;;11.77;8.50;;;7.00;99.90;;;;;;5056259;28;20202;-41
2021/12/14 06:15:11;;;;;;;15.77;9.13;;;7.00;99.90;;;;;;5055918;28;20183;-42
2021/12/14 06:17:40;;;;;;;12.17;8.83;;;7.00;99.90;;;;;;5038146;28;20179;-40
2021/12/14 06:20:14;;;;;;;14.90;9.07;;;7.00;99.90;;;;;;5055733;28;20184;-40
2021/12/14 06:22:40;;;;;;;12.97;8.10;;;7.00;99.90;;;;;;5056263;28;20226;-41
2021/12/14 06:25:10;;;;;;;13.97;8.73;;;7.00;99.90;;;;;;5056153;28;20533;-43
2021/12/14 06:27:37;;;;;;;14.03;9.37;;;7.00;99.90;;;;;;5056130;28;20168;-44
2021/12/14 06:30:10;;;;;;;15.53;8.67;;;7.00;99.90;;;;;;5055807;28;20536;-42
2021/12/14 06:32:58;;;;;;;14.07;9.17;;;7.00;99.90;;;;;;5055407;28;20200;-40
2021/12/14 06:35:35;;;;;;;14.07;8.63;;;7.00;99.90;;;;;;5055388;28;20168;-43
2021/12/14 06:41:12;;;;;;;15.00;8.87;;;7.00;99.90;;;;;;5055583;28;20264;-44
2021/12/14 06:43:49;;;;;;;12.83;7.80;;;7.00;99.90;;;;;;5050400;28;20238;-42
2021/12/14 06:46:19;;;;;;;12.00;8.00;;;7.00;99.90;;;;;;5055393;28;20210;-41
2021/12/14 06:49:00;;;;;;;14.07;8.77;;;7.00;99.90;;;;;;5055122;28;20219;-43
2021/12/14 06:51:37;;;;;;;13.63;8.13;;;7.00;99.90;;;;;;5055194;28;20741;-42
2021/12/14 06:54:09;;;;;;;12.17;8.13;;;7.00;99.90;;;;;;5054974;28;20184;-42
2021/12/14 06:56:36;;;;;;;12.30;8.30;;;7.00;99.90;;;;;;5055151;28;20188;-42
2021/12/14 06:59:12;;;;;;;13.63;7.53;;;7.00;99.90;;;;;;5054935;28;20267;-41
2021/12/14 07:01:46;;;;;;;9.97;6.80;;;7.00;99.90;;;;;;5054795;28;20225;-41
2021/12/14 07:04:20;;;;;;;12.73;7.53;;;7.00;99.90;;;;;;5054972;28;20202;-41
2021/12/14 07:06:54;;;;;;;12.60;8.23;;;7.00;99.90;;;;;;5052521;28;20640;-45
2021/12/14 07:09:27;;;;;;;13.20;7.80;;;7.00;99.90;;;;;;5054939;28;20217;-39
2021/12/14 07:12:14;;;;;;;10.77;6.60;;;7.00;99.90;;;;;;5054852;28;20200;-42
2021/12/14 07:15:15;;;;;;;13.07;6.77;;;7.00;99.90;;;;;;5054912;28;20315;-42
2021/12/14 07:17:50;;;;;;;11.80;6.73;;;7.00;99.90;;;;;;5067162;28;20190;-43
2021/12/14 07:20:31;;;;;;;11.83;6.37;;;7.00;99.90;;;;;;5054481;28;20194;-42
2021/12/14 07:23:04;;;;;;;10.70;6.40;;;7.00;99.90;;;;;;5054280;28;20206;-42
2021/12/14 07:25:37;;;;;;;14.03;6.63;;;7.00;99.90;;;;;;5054621;28;20613;-40
2021/12/14 07:28:17;;;;;;;11.87;6.40;;;7.00;99.90;;;;;;5054181;28;20694;-41
2021/12/14 07:30:56;;;;;;;10.70;6.60;;;6.90;99.90;;;;;;5054595;28;20225;-41
2021/12/14 07:33:28;;;;;;;11.50;7.07;;;7.00;99.90;;;;;;5052993;28;20187;-40
2021/12/14 07:36:01;;;;;;;11.53;6.23;;;7.00;99.90;;;;;;5054447;28;20186;-43
2021/12/14 07:38:30;;;;;;;11.87;7.17;;;7.00;99.90;;;;;;5054159;28;20176;-41
2021/12/14 07:41:04;;;;;;;11.67;6.50;;;7.00;99.90;;;;;;5053910;28;20183;-45
2021/12/14 07:43:37;;;;;;;13.00;6.90;;;7.00;99.90;;;;;;5053728;28;20225;-44
2021/12/14 07:46:19;;;;;;;12.63;7.30;;;7.00;99.90;;;;;;5053930;28;20224;-44
2021/12/14 07:48:56;;;;;;;12.47;7.03;;;6.90;99.90;;;;;;5053956;28;20210;-43
2021/12/14 07:51:24;;;;;;;13.17;6.73;;;6.90;99.90;;;;;;5053865;28;20195;-42
2021/12/14 07:53:54;;;;;;;14.17;6.87;;;6.90;99.90;;;;;;5052628;28;20237;-41
2021/12/14 07:56:46;;;;;;;13.20;6.53;;;6.90;99.90;;;;;;5053938;28;20642;-42
2021/12/14 07:59:23;;;;;;;12.33;6.47;;;6.90;99.90;;;;;;5054138;28;20639;-41
2021/12/14 08:02:05;;;;;;;13.67;6.53;;;6.90;99.90;;;;;;5053725;28;20583;-41
2021/12/14 08:04:33;;;;;;;16.03;6.73;;;6.90;99.90;;;;;;5053647;28;20200;-41
2021/12/14 08:06:59;;;;;;;13.57;7.13;;;7.00;99.90;;;;;;5053979;28;20596;-45
2021/12/14 08:09:49;;;;;;;15.40;7.00;;;7.00;99.90;;;;;;5053630;28;20210;-40
2021/12/14 08:12:55;;;;;;;12.13;6.63;;;6.90;99.90;;;;;;5054031;28;20261;-40
2021/12/14 08:15:36;;;;;;;12.40;7.10;;;6.90;99.90;;;;;;5045854;28;20227;-41
2021/12/14 08:18:15;;;;;;;13.00;5.90;;;7.00;99.90;;;;;;5053688;28;20169;-41
2021/12/14 08:20:55;;;;;;;12.60;6.87;;;7.00;99.90;;;;;;5053505;28;20623;-41
2021/12/14 08:24:01;;;;;;;11.93;6.77;;;7.00;99.90;;;;;;5052102;28;20204;-42
2021/12/14 08:26:40;;;;;;;12.33;6.03;;;7.00;99.90;;;;;;5048741;28;20639;-41
2021/12/14 08:29:10;;;;;;;11.77;6.20;;;7.00;99.90;;;;;;5053346;28;20160;-43
2021/12/14 08:31:41;;;;;;;9.63;6.07;;;7.00;99.90;;;;;;5053225;28;20208;-41
2021/12/14 08:34:11;;;;;;;11.20;5.90;;;7.00;99.90;;;;;;5053521;28;20217;-42
2021/12/14 08:36:43;;;;;;;13.33;6.40;;;7.00;99.90;;;;;;5053934;28;20546;-43
2021/12/14 08:39:16;;;;;;;12.07;6.20;;;7.00;99.90;;;;;;5053495;28;20187;-44
2021/12/14 08:41:53;;;;;;;10.93;6.73;;;7.00;99.90;;;;;;5051931;28;20205;-42
2021/12/14 08:44:35;;;;;;;14.53;6.80;;;7.10;99.90;;;;;;5053205;28;20211;-41
2021/12/14 08:47:05;;;;;;;12.30;6.40;;;7.00;99.90;;;;;;5053123;28;20616;-40
2021/12/14 08:49:32;;;;;;;11.47;6.27;;;7.10;99.90;;;;;;5052552;28;20164;-42
2021/12/14 08:51:58;;;;;;;11.63;6.80;;;7.10;99.90;;;;;;5053008;28;20195;-43
2021/12/14 08:54:30;;;;;;;10.77;5.90;;;7.00;99.90;;;;;;5053138;28;20237;-39
2021/12/14 08:57:07;;;;;;;14.07;6.70;;;7.10;99.90;;;;;;5053320;28;20190;-41
2021/12/14 08:59:34;;;;;;;12.73;7.07;;;7.10;99.90;;;;;;5053350;28;20168;-42
2021/12/14 09:02:02;;;;;;;15.03;6.80;;;7.00;99.90;;;;;;5053305;28;20539;-41
2021/12/14 09:04:32;;;;;;;11.80;6.83;;;7.10;99.90;;;;;;5052920;28;20200;-41
2021/12/14 09:07:11;;;;;;;9.43;6.27;;;7.10;99.90;;;;;;5052022;28;20180;-44
2021/12/14 09:09:38;;;;;;;15.53;6.97;;;7.10;99.90;;;;;;5053293;28;20160;-47
2021/12/14 09:12:09;;;;;;;16.33;6.93;;;7.10;99.90;;;;;;5053237;28;20250;-48
2021/12/14 09:14:36;;;;;;;12.17;6.67;;;7.10;99.90;;;;;;5053644;28;20202;-48
2021/12/14 09:17:05;;;;;;;15.07;7.13;;;7.20;99.90;;;;;;5053469;28;20183;-47
2021/12/14 09:19:36;;;;;;;12.60;6.87;;;7.10;99.90;;;;;;5053426;28;20180;-47
2021/12/14 09:22:10;;;;;;;13.53;6.67;;;7.10;99.90;;;;;;5053562;28;20199;-46
2021/12/14 09:24:37;;;;;;;11.73;6.57;;;7.20;99.90;;;;;;5053511;28;20187;-48
2021/12/14 09:27:09;;;;;;;15.80;7.17;;;7.10;99.90;;;;;;5052967;28;20200;-48
2021/12/14 09:29:36;;;;;;;11.07;6.50;;;7.20;99.90;;;;;;5053478;28;20492;-47
2021/12/14 09:32:05;;;;;;;13.50;7.33;;;7.20;99.90;;;;;;5057133;28;20254;-47
2021/12/14 09:34:34;;;;;;;13.10;7.00;;;7.20;99.90;;;;;;5056880;28;20184;-47
2021/12/14 09:37:00;;;;;;;15.97;8.17;;;7.20;99.90;;;;;;5056749;28;20580;-48
2021/12/14 09:39:34;;;;;;;14.33;7.53;;;7.20;99.90;;;;;;5056960;28;20187;-47
2021/12/14 09:42:04;;;;;;;16.63;8.17;;;7.20;99.90;;;;;;5055757;28;20567;-48
2021/12/14 09:44:31;;;;;;;14.17;7.03;;;7.30;99.90;;;;;;5056481;28;20295;-48
2021/12/14 09:47:01;;;;;;;14.90;7.90;;;7.30;99.90;;;;;;5056689;28;20180;-47
2021/12/14 09:49:28;;;;;;;15.80;7.97;;;7.30;99.90;;;;;;5056466;28;20275;-48
2021/12/14 09:52:00;;;;;;;15.47;8.10;;;7.30;99.90;;;;;;5056736;28;20211;-48
2021/12/14 09:54:29;;;;;;;15.97;8.13;;;7.40;99.90;;;;;;5056853;28;20298;-47
2021/12/14 09:57:01;;;;;;;15.40;7.43;;;7.30;99.90;;;;;;5056383;28;20295;-46
2021/12/14 09:59:27;;;;;;;15.23;8.37;;;7.40;99.90;;;;;;5055212;28;20266;-47
2021/12/14 10:02:00;;;;;;;15.27;7.77;;;7.40;99.90;;;;;;5056171;28;20200;-48
2021/12/14 10:04:31;;;;;;;13.93;8.00;;;7.40;99.90;;;;;;5057284;28;20544;-47
2021/12/14 10:06:59;;;;;;;12.03;7.97;;;7.40;99.90;;;;;;5056101;28;20175;-46
2021/12/14 10:09:30;;;;;;;15.47;8.20;;;7.50;99.90;;;;;;5055060;28;20182;-46
2021/12/14 10:12:07;;;;;;;15.60;8.40;;;7.50;99.90;;;;;;5056409;28;20210;-47
2021/12/14 10:18:01;;;;;;;17.13;7.43;;;7.50;99.90;;;;;;5056020;28;20184;-46
2021/12/14 10:20:38;;;;;;;15.77;8.63;;;7.60;99.90;;;;;;5056344;28;20196;-47
2021/12/14 10:23:04;;;;;;;14.60;8.67;;;7.60;99.90;;;;;;5055816;28;20239;-47
2021/12/14 10:25:30;;;;;;;14.33;9.30;;;7.50;99.90;;;;;;5055921;28;20187;-48
2021/12/14 10:27:56;;;;;;;13.73;8.27;;;7.60;99.90;;;;;;5055836;28;20190;-47
2021/12/14 10:30:45;;;;;;;15.50;8.20;;;7.60;99.90;;;;;;5056154;28;20180;-47
2021/12/14 10:33:11;;;;;;;16.90;8.63;;;7.60;99.90;;;;;;5055527;28;20261;-48
2021/12/14 10:35:46;;;;;;;12.57;7.67;;;7.60;99.90;;;;;;5056258;28;20322;-48
2021/12/14 10:47:30;;;;;;;15.43;8.83;;;7.70;99.90;;;;;;5054443;28;20277;-46
2021/12/14 10:49:57;;;;;;;16.87;9.63;;;7.80;99.90;;;;;;5054254;28;20209;-47
2021/12/14 10:52:26;;;;;;;16.80;9.90;;;7.80;99.90;;;;;;5055642;28;20540;-46
2021/12/14 10:55:00;;;;;;;17.37;10.27;;;7.80;99.90;;;;;;5055718;28;20546;-48
2021/12/14 10:57:30;;;;;;;15.60;9.77;;;7.80;99.90;;;;;;5037614;28;20586;-47
2021/12/14 10:59:57;;;;;;;17.13;10.10;;;7.80;99.90;;;;;;5055269;28;20191;-49
2021/12/14 11:02:26;;;;;;;16.03;9.50;;;7.90;99.90;;;;;;5055105;28;20204;-46
2021/12/14 11:04:57;;;;;;;17.57;9.50;;;7.90;99.90;;;;;;5055211;28;20208;-47
2021/12/14 11:07:42;;;;;;;19.87;10.17;;;7.90;99.90;;;;;;5055193;28;20256;-48
2021/12/14 11:10:19;;;;;;;18.50;10.67;;;7.90;99.90;;;;;;5055484;28;20175;-46
2021/12/14 11:12:49;;;;;;;18.27;9.33;;;8.00;99.90;;;;;;5055240;28;20564;-47
2021/12/14 11:15:24;;;;;;;18.40;10.73;;;8.00;99.90;;;;;;5037242;28;20194;-48
2021/12/14 11:21:01;;;;;;;15.73;9.90;;;8.00;99.90;;;;;;5054942;28;20172;-47
2021/12/14 11:23:45;;;;;;;16.63;10.30;;;8.00;99.90;;;;;;5054897;28;20538;-46
2021/12/14 11:26:17;;;;;;;16.60;10.17;;;8.00;99.90;;;;;;5054917;28;20214;-48
2021/12/14 11:28:43;;;;;;;19.20;10.77;;;8.10;99.90;;;;;;5054891;28;20180;-47
2021/12/14 11:31:19;;;;;;;19.27;10.20;;;8.10;99.90;;;;;;5054867;28;20515;-47
2021/12/14 11:34:05;;;;;;;16.90;10.13;;;8.10;99.90;;;;;;5054821;28;20192;-48
2021/12/14 11:36:41;;;;;;;18.00;10.20;;;8.10;99.90;;;;;;5054851;28;20583;-48
2021/12/14 11:39:24;;;;;;;19.80;10.40;;;8.20;99.90;;;;;;5054610;28;20179;-48
2021/12/14 11:42:07;;;;;;;17.40;10.40;;;8.10;99.90;;;;;;5054576;28;20192;-47
2021/12/14 11:44:57;;;;;;;17.63;10.07;;;8.20;99.90;;;;;;5054367;28;20245;-48
2021/12/14 11:50:25;;;;;;;16.63;10.40;;;8.20;99.90;;;;;;5054165;28;20167;-47
2021/12/14 11:53:13;;;;;;;18.37;11.30;;;8.30;99.90;;;;;;5028083;28;20706;-48
2021/12/14 11:55:52;;;;;;;18.77;11.00;;;8.30;99.90;;;;;;5036414;28;20218;-47
2021/12/14 11:58:33;;;;;;;14.10;8.43;;;8.30;99.90;;;;;;5054278;28;20165;-45
2021/12/14 12:01:08;;;;;;;18.47;10.87;;;8.40;99.90;;;;;;5036076;28;20172;-48
2021/12/14 12:03:42;;;;;;;20.93;10.57;;;8.40;99.90;;;;;;5054105;28;20207;-47
2021/12/14 12:09:28;;;;;;;19.27;11.30;;;8.40;99.90;;;;;;5054096;28;20203;-47
2021/12/14 12:11:59;;;;;;;16.77;10.43;;;8.40;99.90;;;;;;5053930;28;20207;-47
2021/12/14 12:14:36;;;;;;;20.83;11.07;;;8.40;99.90;;;;;;5054097;28;20201;-47
2021/12/14 12:17:14;;;;;;;16.53;11.13;;;8.50;99.90;;;;;;5053576;28;20549;-47
2021/12/14 12:20:13;;;;;;;19.07;9.73;;;8.50;99.90;;;;;;5053997;28;20328;-47
2021/12/14 12:22:46;;;;;;;16.37;9.97;;;8.50;99.90;;;;;;5054015;28;20540;-45
2021/12/14 12:25:20;;;;;;;18.53;10.30;;;8.60;99.90;;;;;;5054254;28;20240;-47
2021/12/14 12:27:51;;;;;;;15.93;9.73;;;8.50;99.90;;;;;;5053768;28;20222;-47
2021/12/14 12:30:26;;;;;;;19.97;11.20;;;8.60;99.90;;;;;;5053361;28;20177;-48
2021/12/14 12:32:52;;;;;;;17.67;10.53;;;8.60;99.90;;;;;;5053360;28;20683;-46
2021/12/14 12:35:26;;;;;;;19.83;11.43;;;8.60;99.90;;;;;;5053924;28;20211;-47
2021/12/14 12:37:52;;;;;;;18.67;10.90;;;8.70;99.90;;;;;;5053765;28;20509;-47
2021/12/14 12:40:31;;;;;;;15.87;10.30;;;8.70;99.90;;;;;;5053448;28;20211;-47
2021/12/14 12:43:13;;;;;;;16.63;10.27;;;8.70;99.90;;;;;;5053589;28;20223;-48
2021/12/14 12:45:41;;;;;;;17.17;10.00;;;8.80;99.90;;;;;;5053378;28;20212;-44
2021/12/14 12:48:06;;;;;;;14.57;9.67;;;8.70;99.90;;;;;;5053485;28;20164;-48
2021/12/14 12:50:32;;;;;;;16.83;9.87;;;8.80;99.90;;;;;;5053444;28;20176;-48
2021/12/14 12:52:58;;;;;;;15.83;9.77;;;8.80;99.90;;;;;;5053738;28;20192;-47
2021/12/14 12:55:34;;;;;;;20.93;10.90;;;8.80;99.90;;;;;;5053088;28;20180;-48
2021/12/14 12:58:14;;;;;;;15.23;9.37;;;8.80;99.90;;;;;;5053582;28;20572;-47
2021/12/14 13:00:47;;;;;;;17.67;10.30;;;8.90;99.90;;;;;;5053168;28;20157;-45
2021/12/14 13:03:28;;;;;;;21.03;10.37;;;8.90;99.90;;;;;;5053187;28;20257;-47
2021/12/14 13:05:58;;;;;;;15.60;9.57;;;8.90;99.90;;;;;;5055596;28;20164;-46
2021/12/14 13:08:36;;;;;;;17.37;10.03;;;9.00;99.90;;;;;;5039165;28;20179;-47
2021/12/14 13:11:11;;;;;;;13.90;9.93;;;9.00;99.90;;;;;;5056830;28;20239;-46
2021/12/14 13:13:45;;;;;;;15.30;9.27;;;9.00;99.90;;;;;;5057099;28;20267;-45
2021/12/14 13:16:35;;;;;;;15.17;9.67;;;9.00;99.90;;;;;;5038933;28;20639;-47
2021/12/14 13:19:10;;;;;;;15.20;9.73;;;9.00;99.90;;;;;;5057153;28;20160;-46
2021/12/14 13:21:51;;;;;;;17.33;9.23;;;9.00;99.90;;;;;;5057012;28;20687;-48
2021/12/14 13:24:40;;;;;;;14.30;8.80;;;9.00;99.90;;;;;;5056691;28;20557;-48
2021/12/14 13:27:08;;;;;;;14.60;9.70;;;9.00;99.90;;;;;;5056953;28;20253;-46
2021/12/14 13:29:53;;;;;;;19.80;9.73;;;9.10;99.90;;;;;;5056908;28;20231;-44
2021/12/14 13:32:33;;;;;;;15.57;9.67;;;9.10;99.90;;;;;;5056658;28;20209;-47
2021/12/14 13:35:15;;;;;;;16.20;9.33;;;9.00;99.90;;;;;;5056759;28;20172;-45
2021/12/14 13:37:54;;;;;;;14.50;9.57;;;9.10;99.90;;;;;;5057011;28;20161;-47
2021/12/14 13:40:29;;;;;;;16.90;9.73;;;9.10;99.90;;;;;;5056732;28;20180;-48
2021/12/14 13:43:20;;;;;;;15.70;9.80;;;9.10;99.90;;;;;;5056908;28;20548;-47
2021/12/14 13:46:08;;;;;;;16.30;9.27;;;9.10;99.90;;;;;;5056067;28;20327;-48
2021/12/14 13:48:36;;;;;;;15.03;9.23;;;9.10;99.90;;;;;;5055983;28;20186;-46
2021/12/14 13:51:10;;;;;;;14.23;9.07;;;9.10;99.90;;;;;;5056096;28;20535;-46
2021/12/14 13:53:37;;;;;;;14.40;9.60;;;9.10;99.90;;;;;;5056739;28;20587;-47
2021/12/14 13:56:10;;;;;;;14.67;9.63;;;9.10;99.90;;;;;;5056488;28;20212;-46
2021/12/14 13:58:38;;;;;;;17.33;9.97;;;9.10;99.90;;;;;;5056101;28;20231;-47
2021/12/14 14:01:14;;;;;;;14.50;9.53;;;9.10;99.90;;;;;;5056541;28;20189;-48